sensor_id;sensor_type;location;lat;lon;timestamp;temperature;humidity
20366;DHT22;10341;49.894;8.822;2022-10-16T00:03:52;15.80;99.90
20366;DHT22;10341;49.894;8.822;2022-10-16T00:09:12;15.80;99.90
20366;DHT22;10341;49.894;8.822;2022-10-16T00:14:31;15.80;99.90
20366;DHT22;10341;49.894;8.822;2022-10-16T00:19:50;15.80;99.90
20366;DHT22;10341;49.894;8.822;2022-10-16T00:25:09;15.70;99.90
20366;DHT22;10341;49.894;8.822;2022-10-16T00:30:28;15.70;99.90
20366;DHT22;10341;49.894;8.822;2022-10-16T00:35:48;15.60;99.90
20366;DHT22;10341;49.894;8.822;2022-10-16T00:41:14;15.60;99.90
20366;DHT22;10341;49.894;8.822;2022-10-16T00:46:39;15.60;99.90
20366;DHT22;10341;49.894;8.822;2022-10-16T00:51:59;15.60;99.90
20366;DHT22;10341;49.894;8.822;2022-10-16T00:57:19;15.60;99.90
20366;DHT22;10341;49.894;8.822;2022-10-16T01:02:38;15.60;99.90
20366;DHT22;10341;49.894;8.822;2022-10-16T01:13:35;15.50;99.90
20366;DHT22;10341;49.894;8.822;2022-10-16T01:19:13;15.50;99.90
20366;DHT22;10341;49.894;8.822;2022-10-16T01:24:40;15.50;99.90
20366;DHT22;10341;49.894;8.822;2022-10-16T01:35:30;15.40;99.90
20366;DHT22;10341;49.894;8.822;2022-10-16T01:40:57;15.40;99.90
20366;DHT22;10341;49.894;8.822;2022-10-16T01:46:20;15.40;99.90
20366;DHT22;10341;49.894;8.822;2022-10-16T01:51:41;15.40;99.90
20366;DHT22;10341;49.894;8.822;2022-10-16T01:57:06;15.30;99.90
20366;DHT22;10341;49.894;8.822;2022-10-16T02:02:30;15.30;99.90
20366;DHT22;10341;49.894;8.822;2022-10-16T02:07:50;15.30;99.90
20366;DHT22;10341;49.894;8.822;2022-10-16T02:13:13;15.30;99.90
20366;DHT22;10341;49.894;8.822;2022-10-16T02:18:34;15.20;99.90
20366;DHT22;10341;49.894;8.822;2022-10-16T02:24:18;15.20;99.90
20366;DHT22;10341;49.894;8.822;2022-10-16T02:29:49;15.20;99.90
20366;DHT22;10341;49.894;8.822;2022-10-16T02:35:11;15.20;99.90
20366;DHT22;10341;49.894;8.822;2022-10-16T02:40:31;15.30;99.90
20366;DHT22;10341;49.894;8.822;2022-10-16T02:45:51;15.30;99.90
20366;DHT22;10341;49.894;8.822;2022-10-16T02:51:10;15.30;99.90
20366;DHT22;10341;49.894;8.822;2022-10-16T02:56:30;15.20;99.90
20366;DHT22;10341;49.894;8.822;2022-10-16T03:01:50;15.20;99.90
20366;DHT22;10341;49.894;8.822;2022-10-16T03:07:09;15.20;99.90
20366;DHT22;10341;49.894;8.822;2022-10-16T03:12:29;15.20;99.90
20366;DHT22;10341;49.894;8.822;2022-10-16T03:17:48;15.30;99.90
20366;DHT22;10341;49.894;8.822;2022-10-16T03:23:08;15.30;99.90
20366;DHT22;10341;49.894;8.822;2022-10-16T03:28:28;15.40;99.90
20366;DHT22;10341;49.894;8.822;2022-10-16T03:33:47;15.40;99.90
20366;DHT22;10341;49.894;8.822;2022-10-16T03:39:06;15.40;99.90
20366;DHT22;10341;49.894;8.822;2022-10-16T03:44:25;15.40;99.90
20366;DHT22;10341;49.894;8.822;2022-10-16T03:49:44;15.40;99.90
20366;DHT22;10341;49.894;8.822;2022-10-16T03:55:03;15.40;99.90
20366;DHT22;10341;49.894;8.822;2022-10-16T04:00:23;15.40;99.90
20366;DHT22;10341;49.894;8.822;2022-10-16T04:05:42;15.40;99.90
20366;DHT22;10341;49.894;8.822;2022-10-16T04:11:01;15.40;99.90
20366;DHT22;10341;49.894;8.822;2022-10-16T04:16:20;15.40;99.90
20366;DHT22;10341;49.894;8.822;2022-10-16T04:21:40;15.30;99.90
20366;DHT22;10341;49.894;8.822;2022-10-16T04:26:59;15.30;99.90
20366;DHT22;10341;49.894;8.822;2022-10-16T04:32:18;15.30;99.90
20366;DHT22;10341;49.894;8.822;2022-10-16T04:37:38;15.30;99.90
20366;DHT22;10341;49.894;8.822;2022-10-16T04:42:57;15.30;99.90
20366;DHT22;10341;49.894;8.822;2022-10-16T04:48:16;15.30;99.90
20366;DHT22;10341;49.894;8.822;2022-10-16T04:53:35;15.30;99.90
20366;DHT22;10341;49.894;8.822;2022-10-16T04:58:55;15.30;99.90
20366;DHT22;10341;49.894;8.822;2022-10-16T05:04:15;15.30;99.90
20366;DHT22;10341;49.894;8.822;2022-10-16T05:09:34;15.20;99.90
20366;DHT22;10341;49.894;8.822;2022-10-16T05:14:54;15.20;99.90
20366;DHT22;10341;49.894;8.822;2022-10-16T05:20:17;15.20;99.90
20366;DHT22;10341;49.894;8.822;2022-10-16T05:25:36;15.10;99.90
20366;DHT22;10341;49.894;8.822;2022-10-16T05:30:56;15.10;99.90
20366;DHT22;10341;49.894;8.822;2022-10-16T05:36:15;15.10;99.90
20366;DHT22;10341;49.894;8.822;2022-10-16T05:41:35;15.00;99.90
20366;DHT22;10341;49.894;8.822;2022-10-16T05:46:54;14.90;99.90
20366;DHT22;10341;49.894;8.822;2022-10-16T05:52:13;14.80;99.90
20366;DHT22;10341;49.894;8.822;2022-10-16T05:57:33;14.80;99.90
20366;DHT22;10341;49.894;8.822;2022-10-16T06:02:52;14.80;99.90
20366;DHT22;10341;49.894;8.822;2022-10-16T06:08:12;14.80;99.90
20366;DHT22;10341;49.894;8.822;2022-10-16T06:13:31;14.80;99.90
20366;DHT22;10341;49.894;8.822;2022-10-16T06:18:51;14.80;99.90
20366;DHT22;10341;49.894;8.822;2022-10-16T06:24:11;14.80;99.90
20366;DHT22;10341;49.894;8.822;2022-10-16T06:29:30;14.90;99.90
20366;DHT22;10341;49.894;8.822;2022-10-16T06:34:49;14.90;99.90
20366;DHT22;10341;49.894;8.822;2022-10-16T06:40:09;15.00;99.90
20366;DHT22;10341;49.894;8.822;2022-10-16T06:45:28;15.00;99.90
20366;DHT22;10341;49.894;8.822;2022-10-16T06:51:02;15.10;99.90
20366;DHT22;10341;49.894;8.822;2022-10-16T06:56:27;15.10;99.90
20366;DHT22;10341;49.894;8.822;2022-10-16T07:01:47;15.20;99.90
20366;DHT22;10341;49.894;8.822;2022-10-16T07:07:06;15.40;99.90
20366;DHT22;10341;49.894;8.822;2022-10-16T07:12:25;15.50;99.90
20366;DHT22;10341;49.894;8.822;2022-10-16T07:17:45;15.60;99.90
20366;DHT22;10341;49.894;8.822;2022-10-16T07:23:04;15.80;99.90
20366;DHT22;10341;49.894;8.822;2022-10-16T07:28:23;15.90;99.90
20366;DHT22;10341;49.894;8.822;2022-10-16T07:33:43;16.10;99.90
20366;DHT22;10341;49.894;8.822;2022-10-16T07:39:03;16.20;99.90
20366;DHT22;10341;49.894;8.822;2022-10-16T07:44:23;16.30;99.90
20366;DHT22;10341;49.894;8.822;2022-10-16T07:49:42;16.40;99.90
20366;DHT22;10341;49.894;8.822;2022-10-16T07:55:01;16.50;99.90
20366;DHT22;10341;49.894;8.822;2022-10-16T08:00:21;16.60;99.90
20366;DHT22;10341;49.894;8.822;2022-10-16T08:05:40;16.80;99.90
20366;DHT22;10341;49.894;8.822;2022-10-16T08:10:59;16.90;99.90
20366;DHT22;10341;49.894;8.822;2022-10-16T08:16:18;16.90;99.90
20366;DHT22;10341;49.894;8.822;2022-10-16T08:21:38;17.00;99.90
20366;DHT22;10341;49.894;8.822;2022-10-16T08:26:58;17.30;99.90
20366;DHT22;10341;49.894;8.822;2022-10-16T08:32:17;17.60;99.90
20366;DHT22;10341;49.894;8.822;2022-10-16T08:37:37;17.70;99.90
20366;DHT22;10341;49.894;8.822;2022-10-16T08:48:46;17.60;99.90
20366;DHT22;10341;49.894;8.822;2022-10-16T08:54:21;17.60;99.90
20366;DHT22;10341;49.894;8.822;2022-10-16T08:59:42;17.30;99.90
20366;DHT22;10341;49.894;8.822;2022-10-16T09:10:59;16.90;99.90
20366;DHT22;10341;49.894;8.822;2022-10-16T09:16:27;16.80;99.90
20366;DHT22;10341;49.894;8.822;2022-10-16T09:21:49;16.80;99.90
20366;DHT22;10341;49.894;8.822;2022-10-16T09:27:13;16.90;99.90
20366;DHT22;10341;49.894;8.822;2022-10-16T09:32:33;17.00;99.90
20366;DHT22;10341;49.894;8.822;2022-10-16T09:37:54;17.30;99.90
20366;DHT22;10341;49.894;8.822;2022-10-16T09:49:02;18.00;99.90
20366;DHT22;10341;49.894;8.822;2022-10-16T09:54:22;18.10;99.90
20366;DHT22;10341;49.894;8.822;2022-10-16T09:59:49;18.60;99.90
20366;DHT22;10341;49.894;8.822;2022-10-16T10:05:22;19.40;99.90
20366;DHT22;10341;49.894;8.822;2022-10-16T10:10:42;21.00;99.90
20366;DHT22;10341;49.894;8.822;2022-10-16T10:16:02;23.40;99.90
20366;DHT22;10341;49.894;8.822;2022-10-16T10:21:21;23.50;99.90
20366;DHT22;10341;49.894;8.822;2022-10-16T10:26:49;25.90;99.90
20366;DHT22;10341;49.894;8.822;2022-10-16T10:32:22;24.40;99.90
20366;DHT22;10341;49.894;8.822;2022-10-16T10:49:43;26.60;99.90
20366;DHT22;10341;49.894;8.822;2022-10-16T11:06:19;29.70;99.90
20366;DHT22;10341;49.894;8.822;2022-10-16T11:17:50;29.30;99.90
20366;DHT22;10341;49.894;8.822;2022-10-16T11:23:23;30.50;99.90
20366;DHT22;10341;49.894;8.822;2022-10-16T11:28:54;30.70;99.90
20366;DHT22;10341;49.894;8.822;2022-10-16T11:34:53;31.60;99.40
20366;DHT22;10341;49.894;8.822;2022-10-16T11:40:28;30.00;99.90
20366;DHT22;10341;49.894;8.822;2022-10-16T11:45:52;28.40;99.90
20366;DHT22;10341;49.894;8.822;2022-10-16T11:56:43;27.50;99.90
20366;DHT22;10341;49.894;8.822;2022-10-16T12:07:46;25.70;99.90
20366;DHT22;10341;49.894;8.822;2022-10-16T12:13:29;26.50;99.90
20366;DHT22;10341;49.894;8.822;2022-10-16T12:18:49;26.50;99.90
20366;DHT22;10341;49.894;8.822;2022-10-16T12:24:34;26.20;99.90
20366;DHT22;10341;49.894;8.822;2022-10-16T12:29:56;24.90;99.90
20366;DHT22;10341;49.894;8.822;2022-10-16T12:35:23;26.10;99.90
20366;DHT22;10341;49.894;8.822;2022-10-16T12:40:43;26.40;99.90
20366;DHT22;10341;49.894;8.822;2022-10-16T13:19:43;23.70;99.90
20366;DHT22;10341;49.894;8.822;2022-10-16T13:25:27;23.20;99.90
20366;DHT22;10341;49.894;8.822;2022-10-16T13:30:53;23.40;99.90
20366;DHT22;10341;49.894;8.822;2022-10-16T13:36:29;23.40;99.90
20366;DHT22;10341;49.894;8.822;2022-10-16T13:42:02;23.00;99.90
20366;DHT22;10341;49.894;8.822;2022-10-16T13:47:27;22.50;99.90
20366;DHT22;10341;49.894;8.822;2022-10-16T13:52:47;21.90;99.90
20366;DHT22;10341;49.894;8.822;2022-10-16T13:58:13;21.50;99.90
20366;DHT22;10341;49.894;8.822;2022-10-16T14:03:33;21.30;99.90
20366;DHT22;10341;49.894;8.822;2022-10-16T14:14:25;21.00;99.90
20366;DHT22;10341;49.894;8.822;2022-10-16T14:19:47;20.40;99.90
20366;DHT22;10341;49.894;8.822;2022-10-16T14:25:34;20.20;99.90
20366;DHT22;10341;49.894;8.822;2022-10-16T14:30:58;20.30;99.90
20366;DHT22;10341;49.894;8.822;2022-10-16T14:36:18;20.40;99.90
20366;DHT22;10341;49.894;8.822;2022-10-16T14:41:47;20.60;99.90
20366;DHT22;10341;49.894;8.822;2022-10-16T14:47:08;20.40;99.90
20366;DHT22;10341;49.894;8.822;2022-10-16T14:52:28;20.20;99.90
20366;DHT22;10341;49.894;8.822;2022-10-16T14:57:48;20.10;99.90
20366;DHT22;10341;49.894;8.822;2022-10-16T15:03:08;20.10;99.90
20366;DHT22;10341;49.894;8.822;2022-10-16T15:08:27;20.40;99.90
20366;DHT22;10341;49.894;8.822;2022-10-16T15:13:47;20.40;99.90
20366;DHT22;10341;49.894;8.822;2022-10-16T15:19:07;20.40;99.90
20366;DHT22;10341;49.894;8.822;2022-10-16T15:24:29;20.40;99.90
20366;DHT22;10341;49.894;8.822;2022-10-16T15:29:52;20.40;99.90
20366;DHT22;10341;49.894;8.822;2022-10-16T15:35:12;20.50;99.90
20366;DHT22;10341;49.894;8.822;2022-10-16T15:40:31;20.50;99.90
20366;DHT22;10341;49.894;8.822;2022-10-16T15:46:03;20.50;99.90
20366;DHT22;10341;49.894;8.822;2022-10-16T15:51:24;20.30;99.90
20366;DHT22;10341;49.894;8.822;2022-10-16T15:56:43;20.10;99.90
20366;DHT22;10341;49.894;8.822;2022-10-16T16:02:04;19.90;99.90
20366;DHT22;10341;49.894;8.822;2022-10-16T16:07:24;19.70;99.90
20366;DHT22;10341;49.894;8.822;2022-10-16T16:12:46;19.40;99.90
20366;DHT22;10341;49.894;8.822;2022-10-16T16:18:08;19.20;99.90
20366;DHT22;10341;49.894;8.822;2022-10-16T16:23:28;18.90;99.90
20366;DHT22;10341;49.894;8.822;2022-10-16T16:28:47;18.80;99.90
20366;DHT22;10341;49.894;8.822;2022-10-16T16:34:07;18.60;99.90
20366;DHT22;10341;49.894;8.822;2022-10-16T16:39:26;18.40;99.90
20366;DHT22;10341;49.894;8.822;2022-10-16T16:44:47;18.30;99.90
20366;DHT22;10341;49.894;8.822;2022-10-16T16:50:07;18.10;99.90
20366;DHT22;10341;49.894;8.822;2022-10-16T16:55:26;18.10;99.90
20366;DHT22;10341;49.894;8.822;2022-10-16T17:00:46;17.90;99.90
20366;DHT22;10341;49.894;8.822;2022-10-16T17:06:07;17.80;99.90
20366;DHT22;10341;49.894;8.822;2022-10-16T17:11:27;17.80;99.90
20366;DHT22;10341;49.894;8.822;2022-10-16T17:16:46;17.70;99.90
20366;DHT22;10341;49.894;8.822;2022-10-16T17:22:07;17.70;99.90
20366;DHT22;10341;49.894;8.822;2022-10-16T17:27:27;17.60;99.90
20366;DHT22;10341;49.894;8.822;2022-10-16T17:32:47;17.60;99.90
20366;DHT22;10341;49.894;8.822;2022-10-16T17:38:07;17.50;99.90
20366;DHT22;10341;49.894;8.822;2022-10-16T17:43:26;17.40;99.90
20366;DHT22;10341;49.894;8.822;2022-10-16T17:48:47;17.30;99.90
20366;DHT22;10341;49.894;8.822;2022-10-16T17:54:12;17.20;99.90
20366;DHT22;10341;49.894;8.822;2022-10-16T17:59:32;17.10;99.90
20366;DHT22;10341;49.894;8.822;2022-10-16T18:04:51;17.00;99.90
20366;DHT22;10341;49.894;8.822;2022-10-16T18:10:11;16.70;99.90
20366;DHT22;10341;49.894;8.822;2022-10-16T18:15:30;16.60;99.90
20366;DHT22;10341;49.894;8.822;2022-10-16T18:21:00;16.40;99.90
20366;DHT22;10341;49.894;8.822;2022-10-16T18:26:20;16.20;99.90
20366;DHT22;10341;49.894;8.822;2022-10-16T18:31:39;16.10;99.90
20366;DHT22;10341;49.894;8.822;2022-10-16T18:36:59;15.90;99.90
20366;DHT22;10341;49.894;8.822;2022-10-16T18:42:19;15.80;99.90
20366;DHT22;10341;49.894;8.822;2022-10-16T18:47:38;15.70;99.90
20366;DHT22;10341;49.894;8.822;2022-10-16T18:52:57;15.60;99.90
20366;DHT22;10341;49.894;8.822;2022-10-16T18:58:16;15.40;99.90
20366;DHT22;10341;49.894;8.822;2022-10-16T19:03:36;15.30;99.90
20366;DHT22;10341;49.894;8.822;2022-10-16T19:08:57;15.20;99.90
20366;DHT22;10341;49.894;8.822;2022-10-16T19:14:17;15.10;99.90
20366;DHT22;10341;49.894;8.822;2022-10-16T19:19:36;15.00;99.90
20366;DHT22;10341;49.894;8.822;2022-10-16T19:24:56;14.90;99.90
20366;DHT22;10341;49.894;8.822;2022-10-16T19:30:17;14.90;99.90
20366;DHT22;10341;49.894;8.822;2022-10-16T19:35:37;14.70;99.90
20366;DHT22;10341;49.894;8.822;2022-10-16T19:41:21;14.60;99.90
20366;DHT22;10341;49.894;8.822;2022-10-16T19:46:42;14.50;99.90
20366;DHT22;10341;49.894;8.822;2022-10-16T19:52:01;14.50;99.90
20366;DHT22;10341;49.894;8.822;2022-10-16T19:57:22;14.40;99.90
20366;DHT22;10341;49.894;8.822;2022-10-16T20:02:41;14.40;99.90
20366;DHT22;10341;49.894;8.822;2022-10-16T20:08:00;14.30;99.90
20366;DHT22;10341;49.894;8.822;2022-10-16T20:13:21;14.10;99.90
20366;DHT22;10341;49.894;8.822;2022-10-16T20:18:40;14.20;99.90
20366;DHT22;10341;49.894;8.822;2022-10-16T20:24:01;14.20;99.90
20366;DHT22;10341;49.894;8.822;2022-10-16T20:29:23;14.10;99.90
20366;DHT22;10341;49.894;8.822;2022-10-16T20:34:42;13.90;99.90
20366;DHT22;10341;49.894;8.822;2022-10-16T20:40:04;13.80;99.90
20366;DHT22;10341;49.894;8.822;2022-10-16T20:45:24;13.70;99.90
20366;DHT22;10341;49.894;8.822;2022-10-16T20:50:43;13.60;99.90
20366;DHT22;10341;49.894;8.822;2022-10-16T20:56:03;13.50;99.90
20366;DHT22;10341;49.894;8.822;2022-10-16T21:01:24;13.40;99.90
20366;DHT22;10341;49.894;8.822;2022-10-16T21:06:44;13.40;99.90
20366;DHT22;10341;49.894;8.822;2022-10-16T21:12:03;13.30;99.90
20366;DHT22;10341;49.894;8.822;2022-10-16T21:17:23;13.20;99.90
20366;DHT22;10341;49.894;8.822;2022-10-16T21:22:42;13.30;99.90
20366;DHT22;10341;49.894;8.822;2022-10-16T21:28:01;13.20;99.90
20366;DHT22;10341;49.894;8.822;2022-10-16T21:33:21;13.10;99.90
20366;DHT22;10341;49.894;8.822;2022-10-16T21:38:41;13.00;99.90
20366;DHT22;10341;49.894;8.822;2022-10-16T21:44:01;12.90;99.90
20366;DHT22;10341;49.894;8.822;2022-10-16T21:49:20;12.90;99.90
20366;DHT22;10341;49.894;8.822;2022-10-16T21:54:39;12.70;99.90
20366;DHT22;10341;49.894;8.822;2022-10-16T21:59:58;12.60;99.90
20366;DHT22;10341;49.894;8.822;2022-10-16T22:05:17;12.60;99.90
20366;DHT22;10341;49.894;8.822;2022-10-16T22:10:37;12.50;99.90
20366;DHT22;10341;49.894;8.822;2022-10-16T22:15:56;12.50;99.90
20366;DHT22;10341;49.894;8.822;2022-10-16T22:21:15;12.50;99.90
20366;DHT22;10341;49.894;8.822;2022-10-16T22:26:35;12.40;99.90
20366;DHT22;10341;49.894;8.822;2022-10-16T22:31:54;12.30;99.90
20366;DHT22;10341;49.894;8.822;2022-10-16T22:37:14;12.40;99.90
20366;DHT22;10341;49.894;8.822;2022-10-16T22:42:33;12.30;99.90
20366;DHT22;10341;49.894;8.822;2022-10-16T22:47:53;12.20;99.90
20366;DHT22;10341;49.894;8.822;2022-10-16T22:53:13;12.20;99.90
20366;DHT22;10341;49.894;8.822;2022-10-16T22:58:33;12.20;99.90
20366;DHT22;10341;49.894;8.822;2022-10-16T23:03:52;12.10;99.90
20366;DHT22;10341;49.894;8.822;2022-10-16T23:09:11;12.10;99.90
20366;DHT22;10341;49.894;8.822;2022-10-16T23:14:30;12.00;99.90
20366;DHT22;10341;49.894;8.822;2022-10-16T23:19:50;11.90;99.90
20366;DHT22;10341;49.894;8.822;2022-10-16T23:25:09;11.80;99.90
20366;DHT22;10341;49.894;8.822;2022-10-16T23:30:28;11.70;99.90
20366;DHT22;10341;49.894;8.822;2022-10-16T23:35:48;11.70;99.90
20366;DHT22;10341;49.894;8.822;2022-10-16T23:41:07;11.60;99.90
20366;DHT22;10341;49.894;8.822;2022-10-16T23:46:26;11.60;99.90
20366;DHT22;10341;49.894;8.822;2022-10-16T23:51:46;11.60;99.90
20366;DHT22;10341;49.894;8.822;2022-10-16T23:57:06;11.50;99.90
